Aérodrome :
LOGIN :

S'inscrire | Disclaimer

   EN    FR    IT 

 










Légende :    VFR   VFR Marginal   IFR   IFR Intensif   IFR Très Intensif
Visi : 
Plafond : 
>= 8 km
>= 3000ft
5 à 8 km
1000 à 3000 ft
1500m à 5 km
500 à 1000 ft
800 à 1500m
200 à 500 ft
< 800m
< 200 ft
Symboles :   Orages  Brouillard  Fortes neiges  Fortes précipitations  Vent > 20 kt
SIGMETs :   Divers  Orages  Givrage  Turbulence  Onde Orograph.  Cendres Volcan.







- Altitude de l'aérodrome : 1487 ft
- Code IATA : MUC


EDDM - München Franz Josef Strauss

DERNIER METAR :
  • 200820Z 05001KT 5000 BR FEW003 M08/M09 Q1013 NOSIG

METARs EXPIRÉS :
  • 200750Z 05001KT 5000 BR FEW003 M09/M10 Q1013 NOSIG
  • 200720Z 00000KT 4000 BR FEW004 M11/M12 Q1013 TEMPO BKN004
  • 200650Z 00000KT 4000 BR FEW004 M10/M11 Q1013 TEMPO BKN004
  • 200620Z 05001KT 4500 BR FEW004 M10/M11 Q1012 TEMPO BKN004
  • 200550Z 17001KT 6000 2500E BCFG FEW001 SCT004 M09/M10 Q1012 TEMPO 4000 BR BKN004

TAF TAF EDDM
Valide du 20 à 06h jusqu'au 21 à 12h UTC


200500Z 2006/2112 09003KT CAVOK
PROB30
TEMPO 2006/2009 4000 BR BKN004
TEMPO 2102/2112 4000 BR BKN012
Pas de NOTAMs connus pour ce terrain.



MET'MAP, la Météo Aéronautique d'un coup d'oeil ! - Copyright ORBIFLY Décembre 2007 - Disclaimer

ORBIFLY MET'MAP TEAM :

Programmation & Développement : Alexandra Zaïnal
Conception & Développement : Baudouin d'Aumeries
Co-Programmation & Développement : Marc-Olivier Méhu
Soutien technique & logistique : Manuel Goepfert

Contact : metmap@orbifly.com




SOURCES & CREDITS :

   NOAA